sensor_id;sensor_type;location;lat;lon;timestamp;pressure;altitude;pressure_sealevel;temperature;humidity
18678;BME280;9469;51.114;13.914;2024-03-08T00:04:19;99359.25;;;2.89;95.90
18678;BME280;9469;51.114;13.914;2024-03-08T00:09:24;99357.06;;;2.86;96.35
18678;BME280;9469;51.114;13.914;2024-03-08T00:14:30;99350.22;;;2.85;96.51
18678;BME280;9469;51.114;13.914;2024-03-08T00:19:38;99355.41;;;2.97;95.99
18678;BME280;9469;51.114;13.914;2024-03-08T00:24:43;99352.31;;;2.71;96.57
18678;BME280;9469;51.114;13.914;2024-03-08T00:29:48;99347.47;;;2.40;98.21
18678;BME280;9469;51.114;13.914;2024-03-08T00:34:57;99359.97;;;2.10;100.00
18678;BME280;9469;51.114;13.914;2024-03-08T00:40:04;99354.72;;;1.98;100.00
18678;BME280;9469;51.114;13.914;2024-03-08T00:45:11;99358.72;;;2.01;100.00
18678;BME280;9469;51.114;13.914;2024-03-08T00:50:19;99353.69;;;1.88;100.00
18678;BME280;9469;51.114;13.914;2024-03-08T00:55:24;99348.00;;;2.02;100.00
18678;BME280;9469;51.114;13.914;2024-03-08T01:00:29;99343.56;;;1.91;100.00
18678;BME280;9469;51.114;13.914;2024-03-08T01:05:37;99344.00;;;1.88;100.00
18678;BME280;9469;51.114;13.914;2024-03-08T01:10:43;99336.00;;;1.83;100.00
18678;BME280;9469;51.114;13.914;2024-03-08T01:15:48;99335.19;;;2.17;100.00
18678;BME280;9469;51.114;13.914;2024-03-08T01:20:56;99328.13;;;2.18;100.00
18678;BME280;9469;51.114;13.914;2024-03-08T01:26:01;99316.25;;;2.15;100.00
18678;BME280;9469;51.114;13.914;2024-03-08T01:31:06;99322.91;;;1.60;100.00
18678;BME280;9469;51.114;13.914;2024-03-08T01:36:15;99305.78;;;1.58;100.00
18678;BME280;9469;51.114;13.914;2024-03-08T01:41:22;99306.50;;;1.76;100.00
18678;BME280;9469;51.114;13.914;2024-03-08T01:46:31;99296.78;;;1.77;100.00
18678;BME280;9469;51.114;13.914;2024-03-08T01:51:39;99282.53;;;1.73;100.00
18678;BME280;9469;51.114;13.914;2024-03-08T01:56:45;99285.47;;;1.88;100.00
18678;BME280;9469;51.114;13.914;2024-03-08T02:01:50;99280.59;;;1.57;100.00
18678;BME280;9469;51.114;13.914;2024-03-08T02:06:58;99281.72;;;1.26;100.00
18678;BME280;9469;51.114;13.914;2024-03-08T02:12:15;99281.94;;;1.24;100.00
18678;BME280;9469;51.114;13.914;2024-03-08T02:17:24;99276.22;;;1.16;100.00
18678;BME280;9469;51.114;13.914;2024-03-08T02:22:33;99265.06;;;1.32;100.00
18678;BME280;9469;51.114;13.914;2024-03-08T02:27:40;99265.63;;;1.11;100.00
18678;BME280;9469;51.114;13.914;2024-03-08T02:32:51;99271.34;;;1.31;100.00
18678;BME280;9469;51.114;13.914;2024-03-08T02:37:59;99255.28;;;1.39;100.00
18678;BME280;9469;51.114;13.914;2024-03-08T02:43:05;99252.66;;;1.27;100.00
18678;BME280;9469;51.114;13.914;2024-03-08T02:48:11;99256.63;;;1.30;100.00
18678;BME280;9469;51.114;13.914;2024-03-08T02:53:19;99254.47;;;1.38;100.00
18678;BME280;9469;51.114;13.914;2024-03-08T02:58:24;99257.22;;;1.32;100.00
18678;BME280;9469;51.114;13.914;2024-03-08T03:03:29;99256.50;;;1.13;100.00
18678;BME280;9469;51.114;13.914;2024-03-08T03:08:39;99254.53;;;1.09;100.00
18678;BME280;9469;51.114;13.914;2024-03-08T03:13:48;99247.63;;;1.14;100.00
18678;BME280;9469;51.114;13.914;2024-03-08T03:18:53;99256.19;;;1.21;100.00
18678;BME280;9469;51.114;13.914;2024-03-08T03:24:01;99245.97;;;0.79;100.00
18678;BME280;9469;51.114;13.914;2024-03-08T03:29:12;99241.50;;;0.67;100.00
18678;BME280;9469;51.114;13.914;2024-03-08T03:34:18;99246.25;;;0.70;100.00
18678;BME280;9469;51.114;13.914;2024-03-08T03:39:27;99246.06;;;0.72;100.00
18678;BME280;9469;51.114;13.914;2024-03-08T03:44:33;99246.81;;;0.61;100.00
18678;BME280;9469;51.114;13.914;2024-03-08T03:49:39;99239.63;;;0.56;100.00
18678;BME280;9469;51.114;13.914;2024-03-08T03:54:47;99241.41;;;0.44;100.00
18678;BME280;9469;51.114;13.914;2024-03-08T03:59:52;99237.91;;;0.32;100.00
18678;BME280;9469;51.114;13.914;2024-03-08T04:04:57;99234.50;;;0.32;100.00
18678;BME280;9469;51.114;13.914;2024-03-08T04:10:08;99235.91;;;0.16;100.00
18678;BME280;9469;51.114;13.914;2024-03-08T04:15:14;99218.13;;;0.36;100.00
18678;BME280;9469;51.114;13.914;2024-03-08T04:20:19;99223.31;;;0.43;100.00
18678;BME280;9469;51.114;13.914;2024-03-08T04:25:26;99225.97;;;0.36;100.00
18678;BME280;9469;51.114;13.914;2024-03-08T04:30:33;99219.16;;;0.35;100.00
18678;BME280;9469;51.114;13.914;2024-03-08T04:35:39;99214.41;;;0.44;100.00
18678;BME280;9469;51.114;13.914;2024-03-08T04:40:49;99221.88;;;0.29;100.00
18678;BME280;9469;51.114;13.914;2024-03-08T04:45:55;99221.91;;;0.11;100.00
18678;BME280;9469;51.114;13.914;2024-03-08T04:51:01;99211.84;;;0.55;100.00
18678;BME280;9469;51.114;13.914;2024-03-08T04:56:09;99214.94;;;0.64;100.00
18678;BME280;9469;51.114;13.914;2024-03-08T05:01:15;99219.88;;;0.42;100.00
18678;BME280;9469;51.114;13.914;2024-03-08T05:06:20;99209.25;;;0.08;100.00
18678;BME280;9469;51.114;13.914;2024-03-08T05:11:28;99201.19;;;0.39;100.00
18678;BME280;9469;51.114;13.914;2024-03-08T05:16:33;99197.56;;;0.40;100.00
18678;BME280;9469;51.114;13.914;2024-03-08T05:21:42;99198.19;;;0.24;100.00
18678;BME280;9469;51.114;13.914;2024-03-08T05:26:51;99210.06;;;-0.10;100.00
18678;BME280;9469;51.114;13.914;2024-03-08T05:31:57;99193.94;;;-0.07;100.00
18678;BME280;9469;51.114;13.914;2024-03-08T05:37:03;99206.22;;;-0.08;100.00
18678;BME280;9469;51.114;13.914;2024-03-08T05:42:11;99198.41;;;0.22;100.00
18678;BME280;9469;51.114;13.914;2024-03-08T05:47:17;99197.16;;;-0.05;100.00
18678;BME280;9469;51.114;13.914;2024-03-08T05:52:22;99189.13;;;0.08;100.00
18678;BME280;9469;51.114;13.914;2024-03-08T05:57:30;99188.28;;;0.26;100.00
18678;BME280;9469;51.114;13.914;2024-03-08T06:02:36;99193.66;;;0.01;100.00
18678;BME280;9469;51.114;13.914;2024-03-08T06:07:43;99199.38;;;0.39;100.00
18678;BME280;9469;51.114;13.914;2024-03-08T06:12:51;99199.94;;;0.12;100.00
18678;BME280;9469;51.114;13.914;2024-03-08T06:17:58;99200.41;;;0.38;100.00
18678;BME280;9469;51.114;13.914;2024-03-08T06:23:03;99201.50;;;0.31;100.00
18678;BME280;9469;51.114;13.914;2024-03-08T06:28:16;99200.56;;;0.55;100.00
18678;BME280;9469;51.114;13.914;2024-03-08T06:33:24;99203.28;;;0.90;100.00
18678;BME280;9469;51.114;13.914;2024-03-08T06:38:33;99193.50;;;0.97;100.00
18678;BME280;9469;51.114;13.914;2024-03-08T06:43:41;99185.16;;;1.00;100.00
18678;BME280;9469;51.114;13.914;2024-03-08T06:48:47;99192.25;;;1.22;100.00
18678;BME280;9469;51.114;13.914;2024-03-08T06:53:53;99178.75;;;4.31;95.42
18678;BME280;9469;51.114;13.914;2024-03-08T06:59:09;99166.78;;;6.02;85.97
18678;BME280;9469;51.114;13.914;2024-03-08T07:04:24;99173.91;;;7.93;75.96
18678;BME280;9469;51.114;13.914;2024-03-08T07:09:32;99166.94;;;10.23;67.95
18678;BME280;9469;51.114;13.914;2024-03-08T07:14:48;99162.44;;;8.61;70.47
18678;BME280;9469;51.114;13.914;2024-03-08T07:20:01;99168.03;;;8.55;70.19
18678;BME280;9469;51.114;13.914;2024-03-08T07:25:23;99160.91;;;8.50;69.76
18678;BME280;9469;51.114;13.914;2024-03-08T07:30:44;99167.22;;;7.11;74.09
18678;BME280;9469;51.114;13.914;2024-03-08T07:36:12;99155.50;;;8.27;73.17
18678;BME280;9469;51.114;13.914;2024-03-08T07:41:23;99134.31;;;9.23;70.10
18678;BME280;9469;51.114;13.914;2024-03-08T07:46:40;99141.56;;;8.89;71.17
18678;BME280;9469;51.114;13.914;2024-03-08T07:51:45;99140.72;;;9.46;68.33
18678;BME280;9469;51.114;13.914;2024-03-08T07:56:51;99121.00;;;9.75;67.65
18678;BME280;9469;51.114;13.914;2024-03-08T08:01:59;99138.34;;;8.53;70.15
18678;BME280;9469;51.114;13.914;2024-03-08T08:07:11;99147.63;;;8.02;72.01
18678;BME280;9469;51.114;13.914;2024-03-08T08:12:17;99147.28;;;7.59;71.95
18678;BME280;9469;51.114;13.914;2024-03-08T08:17:34;99129.81;;;8.95;69.42
18678;BME280;9469;51.114;13.914;2024-03-08T08:22:41;99134.50;;;8.74;68.40
18678;BME280;9469;51.114;13.914;2024-03-08T08:27:49;99126.56;;;8.69;67.87
18678;BME280;9469;51.114;13.914;2024-03-08T08:32:58;99119.34;;;9.08;66.96
18678;BME280;9469;51.114;13.914;2024-03-08T08:38:15;99118.41;;;8.94;67.54
18678;BME280;9469;51.114;13.914;2024-03-08T08:43:22;99097.00;;;10.04;66.42
18678;BME280;9469;51.114;13.914;2024-03-08T08:48:34;99096.25;;;9.80;66.41
18678;BME280;9469;51.114;13.914;2024-03-08T08:53:44;99099.22;;;9.97;66.23
18678;BME280;9469;51.114;13.914;2024-03-08T08:58:54;99085.97;;;10.66;64.11
18678;BME280;9469;51.114;13.914;2024-03-08T09:04:04;99081.66;;;9.59;66.77
18678;BME280;9469;51.114;13.914;2024-03-08T09:09:10;99075.16;;;10.44;65.15
18678;BME280;9469;51.114;13.914;2024-03-08T09:14:18;99075.13;;;10.12;66.29
18678;BME280;9469;51.114;13.914;2024-03-08T09:19:42;99068.31;;;10.01;65.76
18678;BME280;9469;51.114;13.914;2024-03-08T09:25:05;99074.41;;;9.41;66.44
18678;BME280;9469;51.114;13.914;2024-03-08T09:30:13;99063.41;;;9.71;62.73
18678;BME280;9469;51.114;13.914;2024-03-08T09:35:31;99052.94;;;11.40;58.74
18678;BME280;9469;51.114;13.914;2024-03-08T09:40:41;99051.66;;;11.65;60.21
18678;BME280;9469;51.114;13.914;2024-03-08T09:45:55;99053.66;;;11.60;59.21
18678;BME280;9469;51.114;13.914;2024-03-08T09:51:09;99040.38;;;10.73;61.45
18678;BME280;9469;51.114;13.914;2024-03-08T09:56:17;99035.66;;;10.19;63.23
18678;BME280;9469;51.114;13.914;2024-03-08T10:01:23;99030.72;;;10.91;61.18
18678;BME280;9469;51.114;13.914;2024-03-08T10:07:04;99038.63;;;10.50;60.54
18678;BME280;9469;51.114;13.914;2024-03-08T10:12:17;99026.69;;;10.79;65.02
18678;BME280;9469;51.114;13.914;2024-03-08T10:17:27;99008.38;;;11.46;62.56
18678;BME280;9469;51.114;13.914;2024-03-08T10:22:37;99004.03;;;12.21;59.53
18678;BME280;9469;51.114;13.914;2024-03-08T10:27:58;99013.22;;;11.03;61.23
18678;BME280;9469;51.114;13.914;2024-03-08T10:33:06;99011.78;;;11.74;62.62
18678;BME280;9469;51.114;13.914;2024-03-08T10:38:19;99001.94;;;11.96;62.62
18678;BME280;9469;51.114;13.914;2024-03-08T10:49:26;99007.28;;;11.47;63.85
18678;BME280;9469;51.114;13.914;2024-03-08T10:54:40;98995.81;;;12.09;63.75
18678;BME280;9469;51.114;13.914;2024-03-08T10:59:47;98998.88;;;11.40;62.93
18678;BME280;9469;51.114;13.914;2024-03-08T11:04:57;98988.75;;;11.42;65.03
18678;BME280;9469;51.114;13.914;2024-03-08T11:10:18;98990.97;;;11.62;63.70
18678;BME280;9469;51.114;13.914;2024-03-08T11:15:25;98974.56;;;11.82;64.55
18678;BME280;9469;51.114;13.914;2024-03-08T11:20:32;98954.25;;;11.73;64.47
18678;BME280;9469;51.114;13.914;2024-03-08T11:25:42;98964.09;;;11.86;64.04
18678;BME280;9469;51.114;13.914;2024-03-08T11:36:25;98946.88;;;11.56;64.00
18678;BME280;9469;51.114;13.914;2024-03-08T11:41:35;98937.78;;;11.93;64.69
18678;BME280;9469;51.114;13.914;2024-03-08T11:46:41;98934.66;;;11.06;66.18
18678;BME280;9469;51.114;13.914;2024-03-08T11:51:52;98918.88;;;12.25;65.33
18678;BME280;9469;51.114;13.914;2024-03-08T11:57:02;98916.41;;;11.84;67.27
18678;BME280;9469;51.114;13.914;2024-03-08T12:02:08;98909.97;;;12.30;65.26
18678;BME280;9469;51.114;13.914;2024-03-08T12:07:18;98914.94;;;11.78;66.71
18678;BME280;9469;51.114;13.914;2024-03-08T12:12:56;98908.38;;;11.13;66.68
18678;BME280;9469;51.114;13.914;2024-03-08T12:18:03;98898.13;;;11.20;66.22
18678;BME280;9469;51.114;13.914;2024-03-08T12:23:14;98900.41;;;12.06;65.48
18678;BME280;9469;51.114;13.914;2024-03-08T12:28:22;98876.06;;;11.06;66.77
18678;BME280;9469;51.114;13.914;2024-03-08T12:33:31;98881.69;;;11.40;66.34
18678;BME280;9469;51.114;13.914;2024-03-08T12:38:38;98873.16;;;11.87;65.49
18678;BME280;9469;51.114;13.914;2024-03-08T12:43:46;98858.41;;;12.12;65.88
18678;BME280;9469;51.114;13.914;2024-03-08T12:48:54;98857.47;;;11.28;66.62
18678;BME280;9469;51.114;13.914;2024-03-08T12:54:00;98851.41;;;11.72;66.50
18678;BME280;9469;51.114;13.914;2024-03-08T12:59:11;98849.47;;;11.86;65.05
18678;BME280;9469;51.114;13.914;2024-03-08T13:04:26;98835.81;;;12.09;65.25
18678;BME280;9469;51.114;13.914;2024-03-08T13:15:04;98825.78;;;11.84;65.46
18678;BME280;9469;51.114;13.914;2024-03-08T13:20:35;98821.53;;;11.61;66.29
18678;BME280;9469;51.114;13.914;2024-03-08T13:25:54;98814.69;;;11.24;66.31
18678;BME280;9469;51.114;13.914;2024-03-08T13:31:15;98804.78;;;12.13;67.08
18678;BME280;9469;51.114;13.914;2024-03-08T13:36:34;98794.06;;;11.30;66.62
18678;BME280;9469;51.114;13.914;2024-03-08T13:41:49;98785.63;;;11.59;66.36
18678;BME280;9469;51.114;13.914;2024-03-08T13:47:24;98783.13;;;12.15;66.17
18678;BME280;9469;51.114;13.914;2024-03-08T13:52:41;98771.97;;;12.61;65.54
18678;BME280;9469;51.114;13.914;2024-03-08T13:57:59;98783.78;;;12.20;65.64
18678;BME280;9469;51.114;13.914;2024-03-08T14:03:07;98771.66;;;12.14;66.29
18678;BME280;9469;51.114;13.914;2024-03-08T14:08:16;98762.00;;;11.88;66.75
18678;BME280;9469;51.114;13.914;2024-03-08T14:13:23;98757.03;;;12.03;63.49
18678;BME280;9469;51.114;13.914;2024-03-08T14:18:30;98751.63;;;11.56;67.65
18678;BME280;9469;51.114;13.914;2024-03-08T14:23:37;98743.31;;;11.57;68.96
18678;BME280;9469;51.114;13.914;2024-03-08T14:28:42;98734.09;;;11.63;68.04
18678;BME280;9469;51.114;13.914;2024-03-08T14:33:57;98745.56;;;12.51;63.13
18678;BME280;9469;51.114;13.914;2024-03-08T14:39:06;98728.72;;;11.54;62.75
18678;BME280;9469;51.114;13.914;2024-03-08T14:44:12;98734.25;;;11.36;64.00
18678;BME280;9469;51.114;13.914;2024-03-08T14:49:21;98719.03;;;11.59;63.67
18678;BME280;9469;51.114;13.914;2024-03-08T14:54:28;98709.91;;;11.51;63.72
18678;BME280;9469;51.114;13.914;2024-03-08T14:59:33;98723.50;;;11.19;65.33
18678;BME280;9469;51.114;13.914;2024-03-08T15:04:42;98709.25;;;11.76;64.37
18678;BME280;9469;51.114;13.914;2024-03-08T15:09:49;98706.78;;;11.27;64.85
18678;BME280;9469;51.114;13.914;2024-03-08T15:14:54;98713.75;;;10.56;70.71
18678;BME280;9469;51.114;13.914;2024-03-08T15:20:07;98696.38;;;10.23;73.38
18678;BME280;9469;51.114;13.914;2024-03-08T15:25:31;98695.56;;;10.09;75.12
18678;BME280;9469;51.114;13.914;2024-03-08T15:30:39;98695.19;;;9.88;75.64
18678;BME280;9469;51.114;13.914;2024-03-08T15:35:51;98694.09;;;9.62;78.04
18678;BME280;9469;51.114;13.914;2024-03-08T15:41:02;98690.88;;;9.79;78.26
18678;BME280;9469;51.114;13.914;2024-03-08T15:46:09;98687.91;;;9.67;79.78
18678;BME280;9469;51.114;13.914;2024-03-08T15:51:18;98685.78;;;9.36;81.17
18678;BME280;9469;51.114;13.914;2024-03-08T15:56:24;98684.47;;;9.20;83.05
18678;BME280;9469;51.114;13.914;2024-03-08T16:01:29;98688.63;;;8.94;83.87
18678;BME280;9469;51.114;13.914;2024-03-08T16:06:38;98682.41;;;9.17;84.48
18678;BME280;9469;51.114;13.914;2024-03-08T16:11:43;98691.50;;;8.98;85.12
18678;BME280;9469;51.114;13.914;2024-03-08T16:16:50;98682.88;;;8.87;85.94
18678;BME280;9469;51.114;13.914;2024-03-08T16:21:58;98685.34;;;8.84;86.97
18678;BME280;9469;51.114;13.914;2024-03-08T16:27:04;98683.13;;;8.53;88.48
18678;BME280;9469;51.114;13.914;2024-03-08T16:32:09;98681.50;;;8.39;89.14
18678;BME280;9469;51.114;13.914;2024-03-08T16:37:22;98677.03;;;8.11;90.55
18678;BME280;9469;51.114;13.914;2024-03-08T16:42:31;98685.28;;;8.09;90.68
18678;BME280;9469;51.114;13.914;2024-03-08T16:47:37;98678.00;;;7.96;91.49
18678;BME280;9469;51.114;13.914;2024-03-08T16:52:50;98671.50;;;7.88;92.08
18678;BME280;9469;51.114;13.914;2024-03-08T16:58:02;98673.28;;;7.69;93.30
18678;BME280;9469;51.114;13.914;2024-03-08T17:03:10;98677.13;;;7.58;94.27
18678;BME280;9469;51.114;13.914;2024-03-08T17:08:19;98673.41;;;7.59;94.23
18678;BME280;9469;51.114;13.914;2024-03-08T17:13:24;98676.78;;;7.41;95.49
18678;BME280;9469;51.114;13.914;2024-03-08T17:18:30;98675.97;;;7.41;95.66
18678;BME280;9469;51.114;13.914;2024-03-08T17:23:41;98682.88;;;7.42;95.80
18678;BME280;9469;51.114;13.914;2024-03-08T17:28:48;98681.13;;;7.27;95.97
18678;BME280;9469;51.114;13.914;2024-03-08T17:33:53;98677.63;;;7.37;95.74
18678;BME280;9469;51.114;13.914;2024-03-08T17:39:01;98681.00;;;7.13;96.40
18678;BME280;9469;51.114;13.914;2024-03-08T17:44:06;98683.28;;;6.96;97.43
18678;BME280;9469;51.114;13.914;2024-03-08T17:49:11;98667.66;;;6.95;97.91
18678;BME280;9469;51.114;13.914;2024-03-08T17:54:19;98665.38;;;6.83;98.07
18678;BME280;9469;51.114;13.914;2024-03-08T17:59:27;98666.53;;;6.67;99.59
18678;BME280;9469;51.114;13.914;2024-03-08T18:04:34;98665.81;;;6.57;99.90
18678;BME280;9469;51.114;13.914;2024-03-08T18:09:44;98664.28;;;6.50;100.00
18678;BME280;9469;51.114;13.914;2024-03-08T18:14:49;98656.94;;;6.42;100.00
18678;BME280;9469;51.114;13.914;2024-03-08T18:19:55;98650.63;;;6.33;100.00
18678;BME280;9469;51.114;13.914;2024-03-08T18:25:03;98647.28;;;6.23;100.00
18678;BME280;9469;51.114;13.914;2024-03-08T18:30:14;98644.72;;;6.08;100.00
18678;BME280;9469;51.114;13.914;2024-03-08T18:35:21;98641.81;;;6.04;100.00
18678;BME280;9469;51.114;13.914;2024-03-08T18:40:29;98641.56;;;6.06;100.00
18678;BME280;9469;51.114;13.914;2024-03-08T18:45:34;98633.69;;;5.96;100.00
18678;BME280;9469;51.114;13.914;2024-03-08T18:50:40;98638.16;;;5.95;100.00
18678;BME280;9469;51.114;13.914;2024-03-08T18:55:50;98620.56;;;5.86;100.00
18678;BME280;9469;51.114;13.914;2024-03-08T19:00:55;98623.50;;;5.64;100.00
18678;BME280;9469;51.114;13.914;2024-03-08T19:06:04;98616.44;;;5.49;100.00
18678;BME280;9469;51.114;13.914;2024-03-08T19:11:11;98618.72;;;5.71;100.00
18678;BME280;9469;51.114;13.914;2024-03-08T19:16:17;98612.88;;;5.79;100.00
18678;BME280;9469;51.114;13.914;2024-03-08T19:21:23;98611.84;;;5.75;100.00
18678;BME280;9469;51.114;13.914;2024-03-08T19:26:35;98614.06;;;5.43;100.00
18678;BME280;9469;51.114;13.914;2024-03-08T19:31:40;98612.56;;;5.17;100.00
18678;BME280;9469;51.114;13.914;2024-03-08T19:36:46;98619.44;;;4.92;100.00
18678;BME280;9469;51.114;13.914;2024-03-08T19:41:59;98624.44;;;4.94;100.00
18678;BME280;9469;51.114;13.914;2024-03-08T19:47:07;98614.44;;;4.96;100.00
18678;BME280;9469;51.114;13.914;2024-03-08T19:52:14;98617.34;;;4.84;100.00
18678;BME280;9469;51.114;13.914;2024-03-08T19:57:22;98616.28;;;4.80;100.00
18678;BME280;9469;51.114;13.914;2024-03-08T20:02:31;98605.50;;;4.77;100.00
18678;BME280;9469;51.114;13.914;2024-03-08T20:07:36;98603.59;;;5.02;100.00
18678;BME280;9469;51.114;13.914;2024-03-08T20:12:44;98605.75;;;4.85;100.00
18678;BME280;9469;51.114;13.914;2024-03-08T20:17:50;98594.13;;;4.96;100.00
18678;BME280;9469;51.114;13.914;2024-03-08T20:22:55;98590.41;;;5.07;100.00
18678;BME280;9469;51.114;13.914;2024-03-08T20:28:08;98590.66;;;5.16;100.00
18678;BME280;9469;51.114;13.914;2024-03-08T20:33:13;98586.75;;;5.08;100.00
18678;BME280;9469;51.114;13.914;2024-03-08T20:38:19;98585.63;;;5.25;100.00
18678;BME280;9469;51.114;13.914;2024-03-08T20:43:36;98575.59;;;5.32;100.00
18678;BME280;9469;51.114;13.914;2024-03-08T20:49:04;98571.91;;;5.33;100.00
18678;BME280;9469;51.114;13.914;2024-03-08T20:54:10;98568.75;;;5.36;100.00
18678;BME280;9469;51.114;13.914;2024-03-08T20:59:19;98571.09;;;5.37;100.00
18678;BME280;9469;51.114;13.914;2024-03-08T21:04:25;98565.31;;;5.35;100.00
18678;BME280;9469;51.114;13.914;2024-03-08T21:09:33;98561.34;;;5.38;99.92
18678;BME280;9469;51.114;13.914;2024-03-08T21:14:41;98558.72;;;5.23;100.00
18678;BME280;9469;51.114;13.914;2024-03-08T21:19:46;98564.28;;;5.31;99.85
18678;BME280;9469;51.114;13.914;2024-03-08T21:24:52;98563.50;;;5.21;100.00
18678;BME280;9469;51.114;13.914;2024-03-08T21:30:00;98550.63;;;5.04;100.00
18678;BME280;9469;51.114;13.914;2024-03-08T21:35:07;98550.38;;;5.00;100.00
18678;BME280;9469;51.114;13.914;2024-03-08T21:40:12;98545.66;;;4.92;100.00
18678;BME280;9469;51.114;13.914;2024-03-08T21:45:29;98539.34;;;4.78;100.00
18678;BME280;9469;51.114;13.914;2024-03-08T21:50:38;98530.13;;;4.71;100.00
18678;BME280;9469;51.114;13.914;2024-03-08T21:55:43;98535.91;;;4.73;100.00
18678;BME280;9469;51.114;13.914;2024-03-08T22:00:52;98528.53;;;4.85;100.00
18678;BME280;9469;51.114;13.914;2024-03-08T22:05:57;98526.44;;;4.77;100.00
18678;BME280;9469;51.114;13.914;2024-03-08T22:11:06;98520.09;;;4.78;100.00
18678;BME280;9469;51.114;13.914;2024-03-08T22:16:14;98499.81;;;4.83;100.00
18678;BME280;9469;51.114;13.914;2024-03-08T22:21:20;98505.59;;;4.90;100.00
18678;BME280;9469;51.114;13.914;2024-03-08T22:26:25;98498.72;;;4.89;100.00
18678;BME280;9469;51.114;13.914;2024-03-08T22:31:34;98488.25;;;4.79;100.00
18678;BME280;9469;51.114;13.914;2024-03-08T22:36:42;98487.16;;;4.75;100.00
18678;BME280;9469;51.114;13.914;2024-03-08T22:41:47;98483.72;;;4.80;100.00
18678;BME280;9469;51.114;13.914;2024-03-08T22:46:54;98482.97;;;4.79;100.00
18678;BME280;9469;51.114;13.914;2024-03-08T22:52:01;98481.13;;;4.75;100.00
18678;BME280;9469;51.114;13.914;2024-03-08T22:57:06;98466.59;;;4.77;100.00
18678;BME280;9469;51.114;13.914;2024-03-08T23:02:13;98462.69;;;4.75;100.00
18678;BME280;9469;51.114;13.914;2024-03-08T23:07:21;98461.31;;;4.82;100.00
18678;BME280;9469;51.114;13.914;2024-03-08T23:12:27;98457.44;;;4.70;100.00
18678;BME280;9469;51.114;13.914;2024-03-08T23:17:39;98462.13;;;4.83;100.00
18678;BME280;9469;51.114;13.914;2024-03-08T23:22:47;98464.81;;;4.68;100.00
18678;BME280;9469;51.114;13.914;2024-03-08T23:27:55;98446.31;;;4.73;99.92
18678;BME280;9469;51.114;13.914;2024-03-08T23:33:03;98443.97;;;4.66;100.00
18678;BME280;9469;51.114;13.914;2024-03-08T23:38:08;98442.41;;;4.65;100.00
18678;BME280;9469;51.114;13.914;2024-03-08T23:43:14;98437.94;;;4.66;100.00
18678;BME280;9469;51.114;13.914;2024-03-08T23:48:22;98436.13;;;4.56;100.00
18678;BME280;9469;51.114;13.914;2024-03-08T23:53:28;98443.22;;;4.46;100.00
18678;BME280;9469;51.114;13.914;2024-03-08T23:58:33;98433.50;;;4.46;100.00
